Time;durP1;ratioP1;P1;durP2;ratioP2;P2;SDS_P1;SDS_P2;PMS_P1;PMS_P2;Temp;Humidity;BMP_temperature;BMP_pressure;BME280_temperature;BME280_humidity;BME280_pressure;Samples;Min_cycle;Max_cycle;Signal;HPM_P1;HPM_P2
2022/08/11 00:01:45;;;;;;;3.90;1.75;;;;;;;26.61;40.84;101140.00;4973402;28;20053;-81
2022/08/11 00:04:36;;;;;;;3.28;1.30;;;;;;;26.62;40.85;101142.34;4968690;28;20522;-81
2022/08/11 00:07:24;;;;;;;3.95;1.90;;;;;;;26.56;40.87;101144.03;4973727;28;20049;-81
2022/08/11 00:10:15;;;;;;;3.88;1.83;;;;;;;26.62;40.64;101135.97;4962725;28;20058;-81
2022/08/11 00:13:02;;;;;;;3.53;1.15;;;;;;;26.55;40.78;101136.06;4973900;28;20439;-81
2022/08/11 00:15:48;;;;;;;6.85;1.52;;;;;;;26.62;40.78;101136.78;4964490;28;20066;-80
2022/08/11 00:18:42;;;;;;;2.67;1.40;;;;;;;26.69;40.63;101136.72;4962209;28;20054;-81
2022/08/11 00:21:27;;;;;;;4.78;1.33;;;;;;;26.69;41.01;101133.91;4959773;28;20045;-81
2022/08/11 00:24:12;;;;;;;3.50;1.52;;;;;;;26.90;40.91;101138.50;4956687;28;20424;-81
2022/08/11 00:26:57;;;;;;;6.55;1.67;;;;;;;26.74;40.85;101141.03;4962808;28;20054;-81
2022/08/11 00:29:53;;;;;;;6.78;1.80;;;;;;;26.87;40.91;101144.91;4960145;28;20054;-81
2022/08/11 00:32:40;;;;;;;5.35;2.15;;;;;;;26.89;40.66;101145.28;4969507;28;20054;-81
2022/08/11 00:35:30;;;;;;;7.45;1.70;;;;;;;26.95;40.56;101149.22;4954845;29;20054;-81
2022/08/11 00:38:16;;;;;;;5.10;1.58;;;;;;;26.98;40.65;101147.56;4940522;28;20527;-81
2022/08/11 00:41:19;;;;;;;7.32;1.38;;;;;;;27.08;40.96;101149.44;4945174;29;20050;-81
2022/08/11 00:44:19;;;;;;;5.25;1.60;;;;;;;27.11;40.92;101152.22;4952265;28;20049;-81
2022/08/11 00:47:38;;;;;;;2.58;1.48;;;;;;;27.16;40.73;101148.16;4973282;28;20054;-81
2022/08/11 00:50:22;;;;;;;5.65;1.45;;;;;;;27.14;40.90;101145.78;4960577;28;20034;-80
2022/08/11 00:53:35;;;;;;;9.40;1.42;;;;;;;27.15;40.94;101144.56;4964983;28;20070;-80
2022/08/11 00:56:29;;;;;;;4.38;1.58;;;;;;;27.21;41.02;101140.13;4973912;28;20066;-81
2022/08/11 00:59:17;;;;;;;7.65;1.48;;;;;;;27.26;40.67;101138.06;4952587;28;20054;-81
2022/08/11 01:02:39;;;;;;;2.55;1.33;;;;;;;27.29;40.85;101145.59;4963360;28;20050;-80
2022/08/11 01:05:33;;;;;;;2.35;1.17;;;;;;;27.33;40.83;101144.31;4973860;28;20054;-80
2022/08/11 01:09:06;;;;;;;5.43;1.43;;;;;;;27.38;41.01;101143.09;4951937;28;20045;-81
2022/08/11 01:12:12;;;;;;;3.63;1.33;;;;;;;27.43;41.80;101134.25;4970779;28;20403;-80
2022/08/11 01:15:19;;;;;;;4.35;1.70;;;;;;;27.49;40.86;101130.56;4962140;28;20523;-81
2022/08/11 01:18:07;;;;;;;3.63;1.02;;;;;;;27.56;41.26;101133.28;4959504;28;20058;-80
2022/08/11 01:21:22;;;;;;;6.88;1.25;;;;;;;27.56;40.96;101124.09;4973071;28;20050;-80
2022/08/11 01:24:39;;;;;;;8.30;1.75;;;;;;;27.57;40.17;101111.72;4972468;28;20069;-81
2022/08/11 01:27:52;;;;;;;2.15;1.35;;;;;;;27.52;40.26;101115.78;4976942;22;20057;-79
2022/08/11 01:30:59;;;;;;;3.10;1.63;;;;;;;27.52;40.24;101103.81;4995654;28;20054;-81
2022/08/11 01:34:03;;;;;;;3.08;1.33;;;;;;;27.44;40.86;101096.69;4994622;28;20104;-81
2022/08/11 01:37:06;;;;;;;8.10;1.50;;;;;;;27.57;40.33;101090.16;4985329;28;20053;-81
2022/08/11 01:40:19;;;;;;;3.80;1.67;;;;;;;27.50;40.09;101073.47;4980935;28;20054;-80
2022/08/11 01:47:07;;;;;;;5.68;1.98;;;;;;;27.40;40.59;101070.81;4983107;28;20411;-81
2022/08/11 01:50:08;;;;;;;3.30;1.85;;;;;;;27.43;40.36;101067.97;4986729;28;20053;-81
2022/08/11 01:53:14;;;;;;;2.60;1.73;;;;;;;27.41;40.50;101069.59;4990011;28;20054;-81
2022/08/11 01:56:08;;;;;;;4.38;1.38;;;;;;;27.35;40.40;101060.91;5000168;28;20403;-82
2022/08/11 01:59:13;;;;;;;2.92;1.23;;;;;;;27.38;41.07;101064.88;4985535;28;20065;-80
2022/08/11 02:02:10;;;;;;;1.35;1.00;;;;;;;27.38;40.98;101064.88;5000019;28;20046;-81
2022/08/11 02:05:10;;;;;;;4.00;2.03;;;;;;;27.50;41.89;101067.09;4983482;28;20054;-81
2022/08/11 02:08:02;;;;;;;4.63;1.30;;;;;;;27.55;42.13;101069.41;4970098;28;20074;-80
2022/08/11 02:11:29;;;;;;;2.88;1.20;;;;;;;27.51;41.96;101068.69;4979522;28;20041;-81
2022/08/11 02:14:30;;;;;;;4.65;1.67;;;;;;;27.47;42.21;101059.53;4977103;28;20049;-81
2022/08/11 02:17:33;;;;;;;3.53;1.50;;;;;;;27.54;42.33;101062.25;4967542;28;20046;-81
2022/08/11 02:23:52;;;;;;;4.55;1.40;;;;;;;27.56;42.57;101059.81;4979942;28;20046;-80
2022/08/11 02:26:46;;;;;;;2.50;1.15;;;;;;;27.53;42.39;101055.88;4965463;28;20046;-80
2022/08/11 02:30:06;;;;;;;6.00;1.40;;;;;;;27.56;42.63;101054.25;4969074;28;20049;-81
2022/08/11 02:33:25;;;;;;;2.97;1.27;;;;;;;27.56;42.65;101054.25;4985797;28;20049;-80
2022/08/11 02:36:23;;;;;;;3.90;1.45;;;;;;;27.47;41.63;101042.78;4968592;28;20534;-81
2022/08/11 02:39:12;;;;;;;4.40;1.67;;;;;;;27.23;41.87;101051.09;4990238;28;20049;-81
2022/08/11 02:42:24;;;;;;;5.30;2.35;;;;;;;27.29;42.45;101045.03;4977564;28;20053;-81
2022/08/11 02:45:30;;;;;;;7.60;1.77;;;;;;;27.19;42.77;101053.16;4998804;28;20053;-81
2022/08/11 02:52:16;;;;;;;3.70;1.73;;;;;;;27.00;44.26;101056.63;4983873;28;20046;-80
2022/08/11 02:55:33;;;;;;;6.28;1.42;;;;;;;27.14;43.64;101062.00;4972824;28;20053;-80
2022/08/11 02:58:35;;;;;;;1.90;1.27;;;;;;;27.30;43.89;101055.78;4968060;28;20057;-81
2022/08/11 03:01:38;;;;;;;1.98;1.50;;;;;;;27.34;43.79;101058.53;4977097;28;20037;-80
2022/08/11 03:04:35;;;;;;;2.33;1.38;;;;;;;27.36;43.57;101053.31;4987410;28;20408;-81
2022/08/11 03:07:39;;;;;;;2.53;1.33;;;;;;;27.39;43.84;101044.09;4989790;28;20038;-80
2022/08/11 03:10:42;;;;;;;6.53;1.77;;;;;;;27.40;43.62;101054.06;4983061;28;20661;-81
2022/08/11 03:16:52;;;;;;;5.03;1.52;;;;;;;27.36;44.14;101044.94;4964249;28;20070;-81
2022/08/11 03:19:53;;;;;;;4.80;1.17;;;;;;;27.38;44.10;101039.75;4966882;28;20416;-81
2022/08/11 03:23:03;;;;;;;5.00;1.70;;;;;;;27.37;44.35;101038.16;4969433;28;20427;-81
2022/08/11 03:25:53;;;;;;;2.58;1.42;;;;;;;27.40;44.31;101048.47;4973439;28;20527;-80
2022/08/11 03:29:04;;;;;;;6.40;1.50;;;;;;;27.38;44.66;101043.28;4985617;28;20045;-80
2022/08/11 03:32:01;;;;;;;3.40;1.40;;;;;;;27.35;44.86;101041.34;4972822;28;20046;-81
2022/08/11 03:34:49;;;;;;;3.28;1.60;;;;;;;27.31;44.92;101037.03;4977742;28;20045;-79
2022/08/11 03:37:55;;;;;;;5.38;1.52;;;;;;;27.32;44.81;101038.63;4980065;28;20057;-81
2022/08/11 03:44:36;;;;;;;2.50;1.65;;;;;;;27.27;45.09;101034.31;4959669;29;20066;-80
2022/08/11 03:47:32;;;;;;;3.22;1.65;;;;;;;27.28;44.97;101038.66;4959239;29;20523;-80
2022/08/11 03:50:21;;;;;;;2.78;1.25;;;;;;;27.24;45.02;101033.13;4959457;29;20050;-81
2022/08/11 03:53:15;;;;;;;2.15;1.23;;;;;;;27.23;44.62;101039.94;4980416;28;20057;-80
2022/08/11 03:56:28;;;;;;;5.03;1.60;;;;;;;27.21;45.04;101034.00;4994066;28;20049;-81
2022/08/11 03:59:29;;;;;;;4.00;1.65;;;;;;;27.17;45.00;101033.22;4979903;28;20427;-80
2022/08/11 04:02:26;;;;;;;2.47;1.45;;;;;;;27.18;44.89;101034.81;4985522;28;20165;-79
2022/08/11 04:05:41;;;;;;;2.10;1.30;;;;;;;27.17;44.85;101032.47;4980546;28;20118;-81
2022/08/11 04:08:36;;;;;;;2.78;1.50;;;;;;;27.15;44.83;101040.47;4983039;28;20119;-80
2022/08/11 04:11:56;;;;;;;3.15;1.40;;;;;;;27.13;45.03;101026.13;4959617;28;20054;-81
2022/08/11 04:18:17;;;;;;;2.85;1.42;;;;;;;27.12;44.54;101025.31;4978629;28;20061;-80
2022/08/11 04:21:24;;;;;;;4.20;1.50;;;;;;;27.11;44.57;101023.75;4981386;28;20527;-81
2022/08/11 04:24:53;;;;;;;4.80;1.83;;;;;;;27.11;44.47;101026.56;4970126;28;20061;-81
2022/08/11 04:28:02;;;;;;;4.43;1.75;;;;;;;26.49;45.40;101028.94;4973471;28;20042;-80
2022/08/11 04:31:11;;;;;;;4.28;1.55;;;;;;;26.28;46.76;101025.16;4977671;28;20512;-81
2022/08/11 04:34:27;;;;;;;4.97;1.75;;;;;;;26.10;46.68;101023.75;4964806;28;20050;-81
2022/08/11 04:37:33;;;;;;;2.83;1.33;;;;;;;26.19;47.11;101029.63;4969898;28;20050;-81
2022/08/11 04:40:45;;;;;;;4.65;1.30;;;;;;;26.54;46.45;101034.84;4963681;28;20071;-81
2022/08/11 04:44:14;;;;;;;14.20;1.60;;;;;;;26.72;45.90;101029.03;4973678;28;20050;-81
2022/08/11 05:01:39;;;;;;;2.97;1.63;;;;;;;26.77;46.08;101032.16;4975013;28;20046;-81
2022/08/11 05:03:49;;;;;;;9.88;1.85;;;;;;;26.75;45.83;101051.34;4976627;28;20042;-81
2022/08/11 05:07:05;;;;;;;6.07;2.22;;;;;;;26.74;46.23;101054.53;4985767;28;20061;-81
2022/08/11 05:09:53;;;;;;;5.50;1.73;;;;;;;26.68;46.66;101056.19;4982673;28;20042;-81
2022/08/11 05:12:48;;;;;;;22.52;1.92;;;;;;;26.81;46.54;101051.66;4963477;28;20058;-80
2022/08/11 05:34:51;;;;;;;6.55;1.60;;;;;;;27.15;45.94;101062.78;4987443;28;20049;-79
2022/08/11 05:56:18;;;;;;;30.90;2.75;;;;;;;27.26;45.30;101063.44;4966315;28;20065;-79
2022/08/11 05:59:04;;;;;;;5.60;1.67;;;;;;;27.28;45.87;101074.19;4991480;28;20062;-80
2022/08/11 06:01:50;;;;;;;4.38;1.60;;;;;;;27.30;45.57;101060.59;4975418;28;20061;-80
2022/08/11 06:04:37;;;;;;;2.13;1.30;;;;;;;27.34;45.49;101064.13;4965330;28;20634;-80
2022/08/11 06:07:28;;;;;;;2.22;1.42;;;;;;;27.37;45.51;101052.13;4976713;28;20050;-78
2022/08/11 06:10:25;;;;;;;2.45;1.60;;;;;;;27.36;43.99;101051.31;4983872;28;20050;-79
2022/08/11 06:13:16;;;;;;;4.35;1.20;;;;;;;27.39;44.24;101055.25;4986381;28;20053;-78
2022/08/11 06:16:01;;;;;;;4.82;1.75;;;;;;;27.40;43.95;101060.44;4966532;28;20054;-79
2022/08/11 06:18:47;;;;;;;4.70;1.52;;;;;;;27.44;44.14;101063.97;4978444;28;20111;-80
2022/08/11 06:21:34;;;;;;;2.63;1.83;;;;;;;27.46;44.56;101055.97;4973836;28;20046;-79
2022/08/11 06:24:20;;;;;;;5.25;1.30;;;;;;;27.49;43.84;101065.47;4972185;28;20054;-79
2022/08/11 06:27:06;;;;;;;2.53;1.20;;;;;;;27.54;43.83;101065.03;4975785;28;20526;-80
2022/08/11 06:29:53;;;;;;;4.28;1.63;;;;;;;27.57;42.51;101064.22;4978427;28;20042;-79
2022/08/11 06:32:42;;;;;;;3.92;0.90;;;;;;;27.57;40.70;101056.63;4971090;28;20050;-80
2022/08/11 06:35:50;;;;;;;4.15;0.90;;;;;;;27.65;40.93;101060.06;4978518;28;20054;-79
2022/08/11 06:39:26;;;;;;;1.67;1.13;;;;;;;27.69;39.73;101052.41;4976806;28;20050;-78
2022/08/11 06:42:27;;;;;;;6.95;1.40;;;;;;;27.72;40.98;101059.19;4974699;28;20054;-79
2022/08/11 06:45:40;;;;;;;6.43;1.20;;;;;;;27.78;41.06;101055.50;4962151;28;20042;-79
2022/08/11 06:48:25;;;;;;;2.10;1.10;;;;;;;27.81;41.17;101054.63;4972132;28;20046;-79
2022/08/11 06:51:10;;;;;;;2.45;1.45;;;;;;;27.86;40.86;101051.34;4977973;28;20054;-80
2022/08/11 06:53:59;;;;;;;2.53;1.10;;;;;;;27.90;39.62;101051.28;4978592;28;20054;-79
2022/08/11 07:03:12;;;;;;;3.10;0.98;;;;;;;28.02;35.41;101051.47;4966516;28;20169;-79
2022/08/11 07:06:23;;;;;;;4.03;1.23;;;;;;;28.04;34.31;101039.84;4965222;28;20046;-79
2022/08/11 07:15:52;;;;;;;8.30;1.38;;;;;;;28.20;34.00;101036.38;4969130;28;20415;-80
2022/08/11 07:31:28;;;;;;;7.05;1.05;;;;;;;28.46;31.76;101039.06;5024018;28;20510;-82
2022/08/11 07:34:24;;;;;;;1.95;1.00;;;;;;;28.54;31.62;101036.16;4993708;28;20049;-84
2022/08/11 07:37:16;;;;;;;7.25;0.98;;;;;;;28.55;30.01;101032.88;5012653;28;20044;-83
2022/08/11 07:40:03;;;;;;;3.08;1.60;;;;;;;28.62;29.09;101041.16;5010065;28;20049;-85
2022/08/11 07:42:49;;;;;;;2.72;0.95;;;;;;;28.67;29.62;101031.47;5004781;28;20065;-82
2022/08/11 07:54:48;;;;;;;3.97;1.10;;;;;;;28.74;28.53;101032.16;5004386;28;20544;-85
2022/08/11 08:19:05;;;;;;;5.50;0.82;;;;;;;29.03;29.03;101034.31;5021400;28;20604;-84
2022/08/11 08:21:51;;;;;;;4.22;0.68;;;;;;;29.04;27.88;101033.09;5034750;28;20057;-86
2022/08/11 08:24:38;;;;;;;0.90;0.60;;;;;;;29.03;27.00;101031.53;5026729;28;20064;-87
2022/08/11 08:27:24;;;;;;;1.42;0.65;;;;;;;29.04;27.50;101028.28;5024577;28;20129;-87
2022/08/11 08:33:17;;;;;;;1.48;0.77;;;;;;;29.12;27.04;101031.72;5005859;28;20049;-86
2022/08/11 08:36:10;;;;;;;6.32;0.75;;;;;;;29.13;26.00;101036.09;5005779;28;20056;-87
2022/08/11 08:38:54;;;;;;;0.98;0.55;;;;;;;29.14;26.13;101035.66;5028115;28;20053;-85
2022/08/11 08:41:42;;;;;;;1.70;0.60;;;;;;;29.18;26.02;101035.56;5033817;28;20049;-87
2022/08/11 08:44:27;;;;;;;7.32;0.60;;;;;;;29.18;25.40;101033.56;5023373;28;20049;-86
2022/08/11 08:47:14;;;;;;;1.17;0.68;;;;;;;29.26;26.68;101029.38;5022987;28;20049;-85
2022/08/11 08:50:04;;;;;;;3.97;0.75;;;;;;;29.30;27.21;101032.91;5037161;28;20049;-86
2022/08/11 08:52:54;;;;;;;2.63;0.70;;;;;;;29.35;28.87;101031.63;5027887;28;20414;-83
2022/08/11 08:55:41;;;;;;;1.80;0.82;;;;;;;29.36;29.67;101035.22;5020493;28;20041;-86
2022/08/11 08:58:28;;;;;;;3.55;0.90;;;;;;;29.35;27.65;101026.00;5014284;28;20048;-86
2022/08/11 09:01:15;;;;;;;3.90;0.50;;;;;;;29.41;27.60;101027.03;4989618;28;20045;-85
2022/08/11 09:04:00;;;;;;;1.65;0.70;;;;;;;29.44;28.40;101029.00;5007248;28;20048;-85
2022/08/11 09:06:47;;;;;;;2.45;0.93;;;;;;;29.48;28.81;101029.69;5008881;28;20049;-85
2022/08/11 09:09:32;;;;;;;2.78;0.93;;;;;;;29.47;28.17;101028.09;5007590;28;20057;-85
2022/08/11 09:12:18;;;;;;;3.22;0.65;;;;;;;29.49;27.48;101025.66;5007358;28;20045;-85
2022/08/11 09:15:06;;;;;;;6.47;0.80;;;;;;;29.53;25.98;101028.38;5014265;28;20041;-87
2022/08/11 09:18:04;;;;;;;3.53;1.02;;;;;;;29.57;26.29;101020.66;5015175;28;20525;-87
2022/08/11 09:20:49;;;;;;;1.15;0.52;;;;;;;29.58;25.50;101023.03;5028469;28;20064;-86
2022/08/11 09:29:44;;;;;;;3.65;0.82;;;;;;;29.74;25.04;101014.63;5035887;28;20044;-86
2022/08/11 09:32:30;;;;;;;2.55;0.77;;;;;;;29.81;27.01;101015.66;5002928;28;20049;-87
2022/08/11 09:35:16;;;;;;;2.63;1.00;;;;;;;29.85;26.00;101011.53;5028209;28;20052;-87
2022/08/11 09:41:09;;;;;;;4.07;0.68;;;;;;;29.96;26.95;101014.09;5035613;28;20041;-88
2022/08/11 09:47:01;;;;;;;2.20;0.85;;;;;;;30.02;28.54;101018.72;5016378;28;20078;-88
2022/08/11 09:49:47;;;;;;;3.70;0.60;;;;;;;30.03;26.27;101006.25;5016250;28;20060;-87
2022/08/11 09:52:39;;;;;;;1.33;0.75;;;;;;;30.11;26.01;101004.06;5007913;28;20055;-86
2022/08/11 09:55:25;;;;;;;1.50;0.98;;;;;;;30.14;28.13;101003.19;4992431;28;20049;-87
2022/08/11 09:58:12;;;;;;;7.57;0.85;;;;;;;30.19;25.21;101005.44;5016003;28;20125;-86
2022/08/11 10:01:00;;;;;;;2.40;1.05;;;;;;;30.31;25.91;101001.13;5015560;28;20060;-86
2022/08/11 10:03:46;;;;;;;2.05;0.90;;;;;;;30.33;25.53;100993.81;5021446;28;20044;-87
2022/08/11 10:09:42;;;;;;;5.25;0.70;;;;;;;30.48;24.77;100986.59;5007511;28;20076;-87
2022/08/11 10:13:20;;;;;;;5.90;0.70;;;;;;;30.53;25.10;100991.66;5015034;28;20529;-89
2022/08/11 10:16:09;;;;;;;3.63;0.80;;;;;;;30.55;25.11;100983.59;5016874;28;20045;-86
2022/08/11 10:18:57;;;;;;;17.98;1.92;;;;;;;30.60;23.76;100982.25;5027214;28;20053;-88
2022/08/11 10:26:48;;;;;;;12.75;1.00;;;;;;;30.65;25.42;100980.91;5013346;28;20053;-86
2022/08/11 10:27:59;;;;;;;1.23;0.82;;;;;;;30.76;24.66;100970.94;5013412;28;20053;-87
2022/08/11 10:34:02;;;;;;;0.82;0.50;;;;;;;30.94;24.09;100975.97;5005302;28;20057;-83
2022/08/11 10:36:47;;;;;;;1.52;1.02;;;;;;;30.97;24.47;100961.06;5018472;28;20045;-82
2022/08/11 10:39:33;;;;;;;166.13;4.72;;;;;;;31.04;26.66;100965.66;5015746;28;20049;-81
2022/08/11 10:48:27;;;;;;;;;;;;;;;29.95;28.85;100960.00;5001205;28;19936;-83
2022/08/11 10:51:13;;;;;;;;;;;;;;;29.91;26.83;100953.72;5015319;28;19917;-81
2022/08/11 11:00:05;;;;;;;;;;;;;;;29.53;29.25;100942.28;5009676;28;19914;-83
2022/08/11 11:02:51;;;;;;;;;;;;;;;29.71;26.18;100931.38;5009586;28;19914;-82
2022/08/11 11:05:37;;;;;;;;;;;;;;;29.68;27.97;100943.47;5011953;28;20306;-82
2022/08/11 11:18:03;;;;;;;;;;;;;;;30.28;26.94;100927.00;4986884;28;19914;-86
2022/08/11 11:20:52;;;;;;;;;;;;;;;30.15;27.99;100926.19;5014650;28;19913;-84
2022/08/11 11:23:40;;;;;;;;;;;;;;;29.77;30.20;100924.00;5014565;28;19914;-85
2022/08/11 11:26:40;;;;;;;;;;;;;;;30.03;26.84;100922.13;5022159;28;19914;-84
2022/08/11 11:29:43;;;;;;;;;;;;;;;29.84;29.44;100916.63;5011897;28;20298;-82
2022/08/11 11:32:34;;;;;;;;;;;;;;;29.94;29.45;100921.19;5022397;28;19917;-85
2022/08/11 11:35:37;;;;;;;;;;;;;;;29.77;30.17;100906.38;5024083;28;19913;-85
2022/08/11 11:38:21;;;;;;;;;;;;;;;30.15;27.18;100909.38;5014857;28;19913;-83
2022/08/11 11:41:25;;;;;;;;;;;;;;;30.04;28.87;100906.88;5017133;28;20086;-82
2022/08/11 11:44:12;;;;;;;;;;;;;;;29.48;30.05;100900.75;5028697;28;19917;-83
2022/08/11 11:46:57;;;;;;;;;;;;;;;29.16;28.85;100900.75;5019883;28;20390;-84
2022/08/11 11:49:42;;;;;;;;;;;;;;;29.34;28.76;100903.94;5015185;28;19913;-83
2022/08/11 11:52:30;;;;;;;;;;;;;;;29.47;29.78;100898.38;5017289;28;19917;-83
2022/08/11 11:55:17;;;;;;;;;;;;;;;29.43;30.26;100886.50;5017055;28;19917;-85
2022/08/11 12:01:15;;;;;;;;;;;;;;;29.44;29.56;100885.28;5015505;28;19921;-80
2022/08/11 12:04:04;;;;;;;;;;;;;;;29.39;29.59;100888.59;5016993;28;20374;-85
2022/08/11 12:06:51;;;;;;;;;;;;;;;29.28;29.60;100880.44;5011954;28;19913;-81
2022/08/11 12:09:36;;;;;;;;;;;;;;;29.29;29.85;100882.03;4999067;28;19917;-81
2022/08/11 12:15:24;;;;;;;;;;;;;;;29.52;30.18;100873.44;4991883;28;19913;-80
2022/08/11 12:18:09;;;;;;;;;;;;;;;29.35;30.75;100869.09;5003577;28;19913;-81
2022/08/11 12:20:53;;;;;;;;;;;;;;;29.48;28.17;100866.34;4995830;28;19914;-83
2022/08/11 12:29:33;;;;;;;;;;;;;;;29.97;28.67;100867.78;5005911;28;19913;-83
2022/08/11 12:32:19;;;;;;;;;;;;;;;29.67;29.67;100863.41;4997222;28;19917;-82
2022/08/11 12:35:05;;;;;;;;;;;;;;;29.41;30.21;100856.09;5023135;28;19921;-82
2022/08/11 12:37:54;;;;;;;;;;;;;;;29.25;29.68;100859.72;5005688;28;19913;-83
2022/08/11 12:46:48;;;;;;;;;;;;;;;29.28;30.85;100846.81;5013366;28;19913;-82
2022/08/11 12:52:44;;;;;;;;;;;;;;;29.74;29.19;100845.59;5006520;28;19917;-83
2022/08/11 12:58:32;;;;;;;;;;;;;;;29.58;30.22;100837.25;5004507;28;20313;-84
2022/08/11 13:07:27;;;;;;;;;;;;;;;29.80;29.10;100827.00;5009635;28;19917;-83
2022/08/11 13:12:46;;;;;;;;;;;;;;;29.95;28.30;100835.81;5013114;28;19917;-85
2022/08/11 13:13:23;;;;;;;;;;;;;;;30.08;28.93;100822.59;5009366;28;19917;-84
2022/08/11 13:16:08;;;;;;;;;;;;;;;30.00;27.84;100824.06;5014520;28;19913;-84
2022/08/11 13:18:53;;;;;;;;;;;;;;;29.83;29.84;100817.69;4995500;28;19917;-84
2022/08/11 13:21:38;;;;;;;;;;;;;;;29.53;29.56;100810.53;5016862;28;19914;-85
2022/08/11 13:24:22;;;;;;;;;;;;;;;29.45;30.92;100805.59;4994749;28;19914;-84
2022/08/11 13:27:07;;;;;;;;;;;;;;;29.29;30.78;100803.56;5015962;28;19913;-85
2022/08/11 13:31:09;;;;;;;;;;;;;;;29.25;30.76;100800.88;5023559;28;19913;-83
2022/08/11 13:32:57;;;;;;;;;;;;;;;29.42;29.92;100790.41;5041866;22;20128;-78
2022/08/11 13:35:43;;;;;;;;;;;;;;;29.51;30.59;100795.41;4976698;28;19918;-79
2022/08/11 13:38:28;;;;;;;;;;;;;;;29.51;29.27;100792.59;4984192;28;19914;-75
2022/08/11 13:44:17;;;;;;;;;;;;;;;29.47;30.97;100786.28;4947649;28;19918;-77
2022/08/11 13:47:03;;;;;;;;;;;;;;;29.62;29.19;100793.84;4947789;28;20390;-77
2022/08/11 13:49:49;;;;;;;;;;;;;;;29.56;30.25;100790.03;4943845;28;19914;-77
2022/08/11 13:52:35;;;;;;;;;;;;;;;29.75;30.17;100786.28;4975495;28;20514;-76
2022/08/11 13:55:23;;;;;;;;;;;;;;;29.67;30.43;100775.69;4972332;28;20076;-77
2022/08/11 13:58:11;;;;;;;;;;;;;;;29.64;30.41;100768.19;4966159;28;19913;-75
2022/08/11 14:00:59;;;;;;;;;;;;;;;29.55;30.87;100766.03;4979992;28;20382;-76
2022/08/11 14:03:45;;;;;;;;;;;;;;;29.82;28.25;100754.41;4984066;28;19914;-76
2022/08/11 14:06:31;;;;;;;;;;;;;;;29.62;30.12;100760.22;4974770;28;19914;-76
2022/08/11 14:09:21;;;;;;;;;;;;;;;29.81;28.76;100749.28;4953110;28;19933;-75
2022/08/11 14:15:18;;;;;;;;;;;;;;;30.22;28.17;100740.03;4965111;28;19913;-77
2022/08/11 14:18:05;;;;;;;;;;;;;;;30.09;29.64;100740.00;4958627;28;19914;-77
2022/08/11 14:23:58;;;;;;;;;;;;;;;29.39;30.64;100735.28;4985098;28;19914;-78
2022/08/11 14:26:44;;;;;;;;;;;;;;;29.24;31.59;100734.88;4958574;28;20303;-76
2022/08/11 14:29:31;;;;;;;;;;;;;;;29.19;31.56;100735.41;4957343;28;20293;-76
2022/08/11 14:32:16;;;;;;;;;;;;;;;29.07;31.36;100735.34;4977830;28;19922;-76
2022/08/11 14:35:01;;;;;;;;;;;;;;;29.09;31.42;100727.28;4965418;28;20301;-77
2022/08/11 14:37:46;;;;;;;;;;;;;;;29.17;31.54;100723.06;4952708;28;19914;-77
2022/08/11 14:49:42;;;;;;;;;;;;;;;29.37;30.30;100709.72;4962358;28;19918;-78
2022/08/11 14:52:28;;;;;;;;;;;;;;;29.29;30.57;100713.91;4956820;28;19918;-76
2022/08/11 14:58:18;;;;;;;;;;;;;;;29.10;31.15;100707.25;4981818;28;19914;-76
2022/08/11 15:03:05;;;;;;;;;;;;;;;29.51;31.69;100700.13;4976275;28;19918;-77
2022/08/11 15:04:09;;;;;;;;;;;;;;;29.81;30.00;100696.00;4970694;28;19914;-78
2022/08/11 15:06:54;;;;;;;;;;;;;;;29.89;30.26;100694.53;4959727;28;19915;-77
2022/08/11 15:09:43;;;;;;;;;;;;;;;30.24;31.29;100699.03;4955464;28;19922;-78
2022/08/11 15:12:28;;;;;;;;;;;;;;;30.08;31.73;100690.75;4965030;28;19918;-82
2022/08/11 15:18:18;;;;;;;;;;;;;;;30.19;28.57;100682.78;4946937;28;19914;-77
2022/08/11 15:24:18;;;;;;;;;;;;;;;29.48;31.06;100682.16;4940259;29;19918;-76
2022/08/11 15:45:46;;;;;;;;;;;;;;;29.43;30.22;100668.69;4953898;28;19914;-77
2022/08/11 15:45:52;;;;;;;;;;;;;;;29.49;30.93;100664.13;4954037;29;19914;-79
2022/08/11 15:48:46;;;;;;;;;;;;;;;29.28;30.90;100662.69;4941168;29;19918;-78
2022/08/11 15:51:36;;;;;;;;;;;;;;;29.29;30.98;100657.88;4965589;28;20518;-78
2022/08/11 15:54:23;;;;;;;;;;;;;;;29.17;31.71;100661.44;4944508;28;19918;-76
2022/08/11 16:04:09;;;;;;;;;;;;;;;29.11;31.75;100657.59;4943185;28;19914;-77
2022/08/11 16:06:21;;;;;;;;;;;;;;;29.42;30.01;100647.50;4953812;29;19914;-76
2022/08/11 16:09:07;;;;;;;;;;;;;;;29.87;28.62;100649.34;4955755;28;19915;-78
2022/08/11 16:11:53;;;;;;;;;;;;;;;29.97;27.04;100657.44;4945815;28;19935;-76
2022/08/11 16:17:52;;;;;;;;;;;;;;;29.91;28.35;100648.03;4940148;28;19914;-76
2022/08/11 16:20:37;;;;;;;;;;;;;;;29.85;28.56;100635.00;4952888;28;19915;-78
2022/08/11 16:23:25;;;;;;;;;;;;;;;30.09;27.29;100641.84;4944497;28;19914;-77
2022/08/11 16:26:10;;;;;;;;;;;;;;;30.25;26.31;100633.28;4942146;28;19914;-81
2022/08/11 16:28:56;;;;;;;;;;;;;;;30.32;26.28;100643.50;4953636;28;19914;-80
2022/08/11 16:31:41;;;;;;;;;;;;;;;30.30;26.50;100640.34;4959720;28;19914;-80
2022/08/11 16:40:37;;;;;;;;;;;;;;;30.03;26.79;100643.63;4943548;28;20299;-78
2022/08/11 16:49:37;;;;;;;;;;;;;;;30.00;26.09;100650.16;4977029;28;19918;-79
2022/08/11 16:52:22;;;;;;;;;;;;;;;29.99;26.46;100648.56;4969014;28;19918;-77
2022/08/11 16:55:08;;;;;;;;;;;;;;;30.04;26.77;100645.19;4957588;28;20298;-79
2022/08/11 17:00:57;;;;;;;;;;;;;;;29.98;26.66;100641.38;4950285;28;20294;-78
2022/08/11 17:13:14;;;;;;;;;;;;;;;30.01;26.64;100652.50;4958848;28;19947;-77
2022/08/11 17:16:06;;;;;;;;;;;;;;;29.93;27.45;100650.38;4946361;28;19914;-78
2022/08/11 17:18:59;;;;;;;;;;;;;;;29.96;26.45;100655.88;4954701;28;19914;-78
2022/08/11 17:24:50;;;;;;;;;;;;;;;29.82;26.72;100650.69;4951831;28;19914;-79
2022/08/11 17:27:35;;;;;;;;;;;;;;;29.81;26.40;100663.16;4964098;28;19914;-78
2022/08/11 17:30:20;;;;;;;;;;;;;;;29.73;27.25;100670.19;4958300;28;19921;-78
2022/08/11 17:36:09;;;;;;;;;;;;;;;29.64;26.98;100672.88;4950860;28;19914;-78
2022/08/11 17:38:54;;;;;;;;;;;;;;;29.54;27.68;100669.19;4953953;28;19914;-77
2022/08/11 17:50:53;;;;;;;;;;;;;;;29.40;29.38;100672.41;4975455;28;19914;-76
2022/08/11 17:59:55;;;;;;;;;;;;;;;29.35;29.29;100675.75;4955469;28;20391;-79
2022/08/11 18:05:47;;;;;;;;;;;;;;;29.25;29.59;100671.22;4961823;28;19926;-75
